createdAt,value
2018-03-21T00:00:55.599Z,0.00
2018-03-21T00:03:22.585Z,-0.10
2018-03-21T00:05:48.859Z,-0.20
2018-03-21T00:08:15.160Z,-0.10
2018-03-21T00:10:41.481Z,-0.20
2018-03-21T00:13:07.739Z,-0.10
2018-03-21T00:15:34.160Z,-0.20
2018-03-21T00:18:00.466Z,-0.20
2018-03-21T00:20:26.755Z,-0.20
2018-03-21T00:22:53.782Z,-0.30
2018-03-21T00:25:20.820Z,-0.30
2018-03-21T00:27:47.127Z,-0.30
2018-03-21T00:30:13.448Z,-0.40
2018-03-21T00:32:39.746Z,-0.50
2018-03-21T00:35:06.834Z,-0.70
2018-03-21T00:37:33.110Z,-0.70
2018-03-21T00:39:59.398Z,-0.80
2018-03-21T00:42:25.713Z,-0.90
2018-03-21T00:44:52.065Z,-1.00
2018-03-21T00:47:18.373Z,-1.10
2018-03-21T00:49:44.671Z,-1.20
2018-03-21T00:52:11.705Z,-1.30
2018-03-21T00:54:38.039Z,-1.30
2018-03-21T00:57:04.329Z,-1.30
2018-03-21T00:59:30.615Z,-1.40
2018-03-21T01:01:56.867Z,-1.50
2018-03-21T01:04:23.890Z,-1.50
2018-03-21T01:06:50.931Z,-1.60
2018-03-21T01:09:18.001Z,-1.70
2018-03-21T01:11:45.068Z,-1.70
2018-03-21T01:14:11.380Z,-1.70
2018-03-21T01:16:38.393Z,-1.70
2018-03-21T01:19:04.672Z,-1.80
2018-03-21T01:21:30.969Z,-1.70
2018-03-21T01:23:57.264Z,-1.70
2018-03-21T01:26:23.562Z,-1.70
2018-03-21T01:28:49.827Z,-1.70
2018-03-21T01:31:16.095Z,-1.60
2018-03-21T01:33:42.358Z,-1.60
2018-03-21T01:36:08.677Z,-1.50
2018-03-21T01:38:35.713Z,-1.40
2018-03-21T01:41:02.788Z,-1.40
2018-03-21T01:43:29.053Z,-1.40
2018-03-21T01:45:55.349Z,-1.30
2018-03-21T01:48:21.681Z,-1.40
2018-03-21T01:50:48.603Z,-1.40
2018-03-21T01:53:15.664Z,-1.50
2018-03-21T01:55:41.985Z,-1.50
2018-03-21T01:58:09.045Z,-1.60
2018-03-21T02:00:35.415Z,-1.60
2018-03-21T02:03:01.752Z,-1.70
2018-03-21T02:05:28.071Z,-1.80
2018-03-21T02:07:54.344Z,-1.80
2018-03-21T02:10:21.407Z,-1.90
2018-03-21T02:12:47.670Z,-1.90
2018-03-21T02:15:14.034Z,-2.00
2018-03-21T02:17:40.529Z,-2.00
2018-03-21T02:20:06.821Z,-2.00
2018-03-21T02:22:33.872Z,-2.10
2018-03-21T02:25:00.914Z,-2.10
2018-03-21T02:27:27.945Z,-2.20
2018-03-21T02:29:54.273Z,-2.20
2018-03-21T02:32:20.542Z,-2.10
2018-03-21T02:34:46.837Z,-2.20
2018-03-21T02:37:13.164Z,-2.20
2018-03-21T02:39:39.453Z,-2.30
2018-03-21T02:42:05.741Z,-2.30
2018-03-21T02:44:32.995Z,-2.40
2018-03-21T02:46:59.352Z,-2.40
2018-03-21T02:49:25.714Z,-2.50
2018-03-21T02:51:52.001Z,-2.50
2018-03-21T02:54:18.334Z,-2.60
2018-03-21T02:56:45.373Z,-2.70
2018-03-21T02:59:12.458Z,-2.70
2018-03-21T03:01:38.758Z,-2.70
2018-03-21T03:04:05.804Z,-2.80
2018-03-21T03:06:32.825Z,-2.80
2018-03-21T03:08:59.168Z,-2.80
2018-03-21T03:11:25.472Z,-2.80
2018-03-21T03:13:51.803Z,-2.80
2018-03-21T03:16:18.059Z,-2.80
2018-03-21T03:18:44.360Z,-2.80
2018-03-21T03:21:10.635Z,-2.80
2018-03-21T03:23:36.919Z,-2.80
2018-03-21T03:26:03.199Z,-2.80
2018-03-21T03:28:30.265Z,-2.80
2018-03-21T03:30:56.558Z,-2.90
2018-03-21T03:33:23.589Z,-2.90
2018-03-21T03:35:49.883Z,-2.90
2018-03-21T03:38:16.163Z,-2.90
2018-03-21T03:40:42.436Z,-3.00
2018-03-21T03:43:08.743Z,-3.00
2018-03-21T03:45:35.765Z,-3.20
2018-03-21T03:48:02.996Z,-3.30
2018-03-21T03:50:30.007Z,-3.30
2018-03-21T03:52:56.283Z,-3.30
2018-03-21T03:55:22.602Z,-3.30
2018-03-21T03:57:48.869Z,-3.30
2018-03-21T04:00:15.893Z,-3.30
2018-03-21T04:02:42.172Z,-3.30
2018-03-21T04:05:08.465Z,-3.30
2018-03-21T04:07:34.705Z,-3.30
2018-03-21T04:10:00.986Z,-3.60
2018-03-21T04:12:27.261Z,-3.70
2018-03-21T04:14:53.517Z,-3.70
2018-03-21T04:17:27.780Z,-3.70
2018-03-21T04:19:54.104Z,-3.80
2018-03-21T04:22:20.398Z,-3.80
2018-03-21T04:24:46.746Z,-3.80
2018-03-21T04:27:13.018Z,-3.80
2018-03-21T04:29:39.315Z,-3.90
2018-03-21T04:32:05.567Z,-3.90
2018-03-21T04:34:31.874Z,-3.80
2018-03-21T04:36:58.172Z,-3.80
2018-03-21T04:39:25.173Z,-3.90
2018-03-21T04:41:51.446Z,-3.90
2018-03-21T04:44:18.494Z,-3.90
2018-03-21T04:46:45.553Z,-3.90
2018-03-21T04:49:11.811Z,-3.90
2018-03-21T04:51:38.118Z,-3.90
2018-03-21T04:54:04.407Z,-3.90
2018-03-21T04:56:30.677Z,-3.90
2018-03-21T04:58:56.995Z,-3.90
2018-03-21T05:01:24.008Z,-3.90
2018-03-21T05:03:50.377Z,-3.90
2018-03-21T05:06:17.376Z,-3.90
2018-03-21T05:08:43.685Z,-3.90
2018-03-21T05:11:09.970Z,-3.90
2018-03-21T05:13:36.996Z,-3.80
2018-03-21T05:16:03.332Z,-3.90
2018-03-21T05:18:29.660Z,-3.90
2018-03-21T05:20:55.962Z,-3.90
2018-03-21T05:23:22.315Z,-3.90
2018-03-21T05:25:48.618Z,-3.90
2018-03-21T05:28:14.917Z,-3.80
2018-03-21T05:30:41.959Z,-3.70
2018-03-21T05:33:09.037Z,-3.60
2018-03-21T05:35:35.339Z,-3.60
2018-03-21T05:38:02.423Z,-3.40
2018-03-21T05:40:28.723Z,-3.40
2018-03-21T05:42:55.179Z,-3.30
2018-03-21T05:45:21.475Z,-3.20
2018-03-21T05:47:48.536Z,-3.20
2018-03-21T05:50:15.528Z,-3.20
2018-03-21T05:52:41.790Z,-3.20
2018-03-21T05:55:09.163Z,-3.10
2018-03-21T05:57:36.238Z,-2.90
2018-03-21T06:00:02.592Z,-2.90
2018-03-21T06:02:28.884Z,-2.70
2018-03-21T06:04:55.175Z,-2.60
2018-03-21T06:07:21.515Z,-2.40
2018-03-21T06:09:48.569Z,-2.30
2018-03-21T06:12:14.967Z,-2.30
2018-03-21T06:14:41.295Z,-2.20
2018-03-21T06:17:07.595Z,-2.00
2018-03-21T06:19:33.903Z,-1.80
2018-03-21T06:22:00.956Z,-1.60
2018-03-21T06:24:27.957Z,-1.40
2018-03-21T06:26:54.208Z,-1.40
2018-03-21T06:29:20.640Z,-1.20
2018-03-21T06:31:46.940Z,-1.20
2018-03-21T06:34:13.246Z,-1.20
2018-03-21T06:36:39.551Z,-1.10
2018-03-21T06:39:05.908Z,-1.00
2018-03-21T06:41:32.219Z,-0.80
2018-03-21T06:43:59.262Z,-0.70
2018-03-21T06:46:26.448Z,-0.60
2018-03-21T06:48:52.755Z,-0.70
2018-03-21T06:51:19.050Z,-0.60
2018-03-21T06:53:45.319Z,-0.70
2018-03-21T06:56:11.635Z,-0.50
2018-03-21T06:58:38.702Z,-0.30
2018-03-21T07:01:05.047Z,-0.30
2018-03-21T07:03:31.311Z,-0.10
2018-03-21T07:05:57.624Z,-0.10
2018-03-21T07:08:23.865Z,-0.10
2018-03-21T07:10:50.398Z,0.00
2018-03-21T07:13:16.744Z,0.20
2018-03-21T07:16:01.681Z,0.30
2018-03-21T07:18:28.000Z,0.40
2018-03-21T07:20:54.320Z,0.50
2018-03-21T07:23:20.763Z,0.80
2018-03-21T07:25:47.081Z,0.80
2018-03-21T07:28:14.138Z,1.20
2018-03-21T07:30:40.437Z,1.20
2018-03-21T07:33:06.705Z,1.10
2018-03-21T07:35:33.027Z,1.00
2018-03-21T07:37:59.350Z,0.60
2018-03-21T07:40:25.605Z,0.80
2018-03-21T07:42:51.916Z,0.90
2018-03-21T07:45:18.149Z,1.20
2018-03-21T07:47:44.472Z,1.00
2018-03-21T07:50:10.803Z,0.80
2018-03-21T07:52:37.095Z,0.80
2018-03-21T07:55:03.398Z,0.90
2018-03-21T07:57:29.669Z,1.10
2018-03-21T07:59:55.950Z,0.80
2018-03-21T08:02:22.261Z,0.60
2018-03-21T08:04:48.505Z,1.00
2018-03-21T08:07:14.812Z,1.20
2018-03-21T08:09:41.100Z,1.40
2018-03-21T08:12:08.116Z,1.60
2018-03-21T08:14:34.526Z,1.60
2018-03-21T08:17:01.566Z,1.70
2018-03-21T08:19:28.614Z,1.80
2018-03-21T08:21:55.683Z,2.00
2018-03-21T08:24:21.989Z,1.90
2018-03-21T08:26:49.063Z,1.70
2018-03-21T08:29:15.389Z,1.70
2018-03-21T08:31:41.698Z,1.60
2018-03-21T08:34:08.779Z,1.70
2018-03-21T08:36:35.090Z,1.80
2018-03-21T08:39:02.131Z,1.20
2018-03-21T08:41:28.474Z,1.20
2018-03-21T08:43:54.756Z,1.50
2018-03-21T08:46:21.058Z,1.90
2018-03-21T08:48:47.375Z,2.30
2018-03-21T08:51:13.634Z,1.90
2018-03-21T08:53:39.900Z,1.80
2018-03-21T08:56:06.234Z,1.80
2018-03-21T08:58:33.282Z,1.80
2018-03-21T09:01:00.330Z,1.80
2018-03-21T09:03:27.375Z,1.90
2018-03-21T09:05:53.649Z,1.90
2018-03-21T09:08:19.933Z,1.80
2018-03-21T09:10:46.231Z,1.90
2018-03-21T09:13:12.529Z,2.20
2018-03-21T09:15:38.832Z,2.40
2018-03-21T09:18:05.896Z,2.40
2018-03-21T09:20:32.277Z,2.40
2018-03-21T09:22:58.576Z,2.10
2018-03-21T09:25:24.935Z,2.20
2018-03-21T09:27:51.219Z,2.20
2018-03-21T09:30:18.277Z,2.10
2018-03-21T09:32:44.596Z,2.10
2018-03-21T09:35:11.651Z,2.60
2018-03-21T09:37:37.980Z,2.50
2018-03-21T09:40:04.268Z,2.60
2018-03-21T09:42:30.543Z,2.40
2018-03-21T09:44:56.813Z,1.90
2018-03-21T09:47:23.130Z,2.40
2018-03-21T09:49:49.410Z,2.30
2018-03-21T09:52:15.791Z,1.90
2018-03-21T09:54:42.099Z,2.20
2018-03-21T09:57:08.400Z,2.50
2018-03-21T09:59:34.689Z,2.60
2018-03-21T10:02:01.000Z,2.70
2018-03-21T10:04:27.285Z,2.90
2018-03-21T10:06:53.621Z,2.80
2018-03-21T10:09:19.967Z,2.70
2018-03-21T10:11:46.999Z,2.80
2018-03-21T10:14:13.321Z,2.80
2018-03-21T10:16:47.472Z,3.30
2018-03-21T10:19:13.785Z,3.30
2018-03-21T10:21:40.855Z,2.70
2018-03-21T10:24:07.173Z,2.60
2018-03-21T10:26:34.226Z,3.10
2018-03-21T10:29:01.273Z,3.00
2018-03-21T10:31:28.289Z,3.10
2018-03-21T10:33:54.573Z,3.10
2018-03-21T10:36:20.883Z,3.00
2018-03-21T10:38:48.066Z,3.20
2018-03-21T10:41:14.354Z,3.20
2018-03-21T10:43:41.399Z,3.00
2018-03-21T10:46:08.448Z,3.10
2018-03-21T10:48:35.508Z,2.90
2018-03-21T10:51:02.585Z,3.10
2018-03-21T10:53:28.886Z,3.10
2018-03-21T10:55:55.912Z,3.30
2018-03-21T10:58:22.258Z,3.30
2018-03-21T11:00:49.296Z,4.00
2018-03-21T11:03:15.637Z,4.00
2018-03-21T11:05:42.679Z,4.40
2018-03-21T11:08:08.993Z,4.40
2018-03-21T11:10:35.237Z,4.10
2018-03-21T11:13:02.286Z,4.90
2018-03-21T11:15:29.344Z,4.70
2018-03-21T11:17:56.372Z,4.50
2018-03-21T11:20:22.682Z,4.50
2018-03-21T11:22:49.028Z,5.10
2018-03-21T11:25:15.362Z,5.00
2018-03-21T11:27:41.672Z,5.30
2018-03-21T11:30:08.000Z,5.50
2018-03-21T11:32:34.334Z,5.90
2018-03-21T11:35:00.704Z,5.40
2018-03-21T11:37:27.751Z,5.90
2018-03-21T11:39:54.784Z,7.40
2018-03-21T11:42:21.081Z,7.40
2018-03-21T11:44:47.421Z,7.10
2018-03-21T11:47:13.718Z,7.20
2018-03-21T11:49:40.019Z,6.90
2018-03-21T11:52:07.082Z,9.60
2018-03-21T11:54:33.387Z,9.50
2018-03-21T11:56:59.703Z,11.50
2018-03-21T11:59:26.035Z,13.30
2018-03-21T12:01:52.375Z,15.00
2018-03-21T12:04:18.709Z,15.60
2018-03-21T12:06:45.052Z,15.30
2018-03-21T12:09:11.368Z,14.20
2018-03-21T12:11:37.712Z,15.60
2018-03-21T12:14:04.064Z,13.90
2018-03-21T12:16:30.379Z,14.50
2018-03-21T12:18:57.485Z,9.10
2018-03-21T12:21:23.833Z,9.00
2018-03-21T12:23:50.156Z,11.80
2018-03-21T12:26:17.271Z,15.40
2018-03-21T12:28:43.599Z,15.30
2018-03-21T12:31:10.160Z,12.90
2018-03-21T12:33:36.544Z,13.50
2018-03-21T12:36:02.847Z,15.00
2018-03-21T12:38:29.168Z,13.30
2018-03-21T12:40:55.470Z,12.80
2018-03-21T12:43:21.794Z,10.30
2018-03-21T12:45:48.128Z,9.30
2018-03-21T12:48:14.423Z,9.40
2018-03-21T12:50:40.741Z,12.20
2018-03-21T12:53:07.251Z,13.10
2018-03-21T12:55:33.549Z,16.20
2018-03-21T12:57:59.902Z,15.80
2018-03-21T13:00:26.279Z,15.70
2018-03-21T13:02:52.603Z,13.80
2018-03-21T13:05:18.905Z,12.20
2018-03-21T13:07:45.277Z,14.50
2018-03-21T13:10:12.376Z,15.00
2018-03-21T13:12:38.636Z,15.00
2018-03-21T13:15:04.907Z,12.50
2018-03-21T13:17:31.182Z,9.20
2018-03-21T13:19:57.453Z,8.10
2018-03-21T13:22:23.746Z,8.70
2018-03-21T13:24:50.100Z,9.60
2018-03-21T13:27:16.434Z,9.20
2018-03-21T13:29:42.742Z,8.60
2018-03-21T13:32:09.112Z,7.80
2018-03-21T13:34:35.414Z,9.30
2018-03-21T13:37:01.730Z,10.60
2018-03-21T13:39:28.002Z,9.50
2018-03-21T13:41:55.048Z,11.60
2018-03-21T13:44:22.107Z,14.90
2018-03-21T13:46:48.475Z,14.80
2018-03-21T13:49:14.819Z,16.40
2018-03-21T13:51:41.138Z,15.90
2018-03-21T13:54:07.535Z,15.50
2018-03-21T13:56:33.864Z,17.00
2018-03-21T13:59:00.905Z,20.40
2018-03-21T14:01:27.965Z,20.70
2018-03-21T14:03:54.249Z,20.60
2018-03-21T14:06:20.656Z,19.60
2018-03-21T14:08:47.002Z,20.50
2018-03-21T14:11:13.310Z,17.40
2018-03-21T14:13:39.637Z,15.00
2018-03-21T14:16:05.920Z,17.00
2018-03-21T14:18:33.058Z,14.90
2018-03-21T14:20:59.324Z,14.90
2018-03-21T14:23:25.640Z,13.80
2018-03-21T14:25:51.916Z,11.30
2018-03-21T14:28:18.255Z,9.40
2018-03-21T14:30:44.597Z,8.60
2018-03-21T14:33:10.876Z,7.80
2018-03-21T14:35:37.959Z,9.40
2018-03-21T14:38:04.209Z,9.40
2018-03-21T14:40:30.497Z,13.00
2018-03-21T14:42:56.811Z,15.30
2018-03-21T14:45:23.950Z,19.20
2018-03-21T14:47:50.271Z,19.20
2018-03-21T14:50:16.577Z,19.70
2018-03-21T14:52:42.881Z,19.50
2018-03-21T14:55:09.185Z,19.50
2018-03-21T14:57:35.510Z,20.80
2018-03-21T15:00:01.780Z,20.50
2018-03-21T15:02:28.039Z,19.20
2018-03-21T15:04:54.349Z,17.20
2018-03-21T15:07:20.712Z,18.10
2018-03-21T15:09:47.091Z,19.10
2018-03-21T15:12:13.397Z,19.70
2018-03-21T15:14:40.552Z,17.60
2018-03-21T15:17:07.614Z,16.20
2018-03-21T15:19:33.941Z,16.20
2018-03-21T15:22:01.026Z,18.80
2018-03-21T15:24:27.351Z,18.70
2018-03-21T15:26:53.724Z,18.80
2018-03-21T15:29:20.066Z,20.10
2018-03-21T15:31:47.195Z,18.80
2018-03-21T15:34:13.564Z,18.80
2018-03-21T15:36:40.649Z,17.80
2018-03-21T15:39:06.943Z,17.80
2018-03-21T15:41:33.999Z,13.90
2018-03-21T15:44:00.362Z,13.80
2018-03-21T15:46:26.665Z,15.80
2018-03-21T15:48:52.967Z,16.80
2018-03-21T15:51:19.456Z,14.70
2018-03-21T15:53:46.546Z,15.00
2018-03-21T15:56:12.865Z,14.90
2018-03-21T15:58:39.228Z,15.10
2018-03-21T16:01:06.275Z,14.00
2018-03-21T16:03:33.397Z,12.40
2018-03-21T16:05:59.787Z,12.40
2018-03-21T16:08:26.802Z,9.50
2018-03-21T16:10:53.876Z,8.70
2018-03-21T16:13:20.284Z,8.60
2018-03-21T16:15:47.389Z,6.90
2018-03-21T16:18:13.765Z,6.80
2018-03-21T16:20:41.039Z,6.30
2018-03-21T16:23:07.747Z,6.30
2018-03-21T16:25:34.154Z,5.90
2018-03-21T16:28:00.594Z,5.90
2018-03-21T16:30:27.718Z,5.20
2018-03-21T16:32:54.091Z,5.20
2018-03-21T16:35:20.437Z,5.00
2018-03-21T16:37:47.500Z,4.80
2018-03-21T16:40:14.606Z,4.70
2018-03-21T16:42:40.937Z,4.70
2018-03-21T16:45:07.278Z,4.60
2018-03-21T16:47:33.651Z,4.80
2018-03-21T16:50:00.054Z,4.80
2018-03-21T16:52:27.150Z,4.40
2018-03-21T16:54:54.555Z,4.40
2018-03-21T16:57:20.861Z,4.30
2018-03-21T16:59:47.185Z,4.00
2018-03-21T17:02:13.518Z,4.00
2018-03-21T17:04:39.862Z,3.70
2018-03-21T17:07:06.981Z,3.30
2018-03-21T17:09:33.311Z,3.20
2018-03-21T17:11:59.645Z,3.10
2018-03-21T17:14:26.047Z,3.00
2018-03-21T17:16:53.104Z,2.80
2018-03-21T17:19:19.419Z,2.80
2018-03-21T17:21:46.456Z,2.70
2018-03-21T17:24:12.866Z,2.60
2018-03-21T17:26:39.276Z,2.70
2018-03-21T17:29:05.590Z,2.60
2018-03-21T17:31:32.001Z,2.60
2018-03-21T17:33:58.415Z,2.50
2018-03-21T17:36:24.760Z,2.50
2018-03-21T17:38:51.155Z,2.40
2018-03-21T17:41:17.412Z,2.30
2018-03-21T17:43:43.741Z,2.20
2018-03-21T17:46:10.037Z,2.10
2018-03-21T17:48:36.421Z,1.90
2018-03-21T17:51:02.693Z,2.00
2018-03-21T17:53:29.092Z,1.80
2018-03-21T17:55:56.187Z,1.80
2018-03-21T17:58:22.626Z,1.80
2018-03-21T18:00:49.012Z,1.70
2018-03-21T18:03:15.579Z,1.60
2018-03-21T18:05:41.974Z,1.60
2018-03-21T18:08:09.130Z,1.60
2018-03-21T18:10:35.640Z,1.60
2018-03-21T18:13:02.884Z,1.60
2018-03-21T18:15:29.401Z,1.50
2018-03-21T18:17:55.862Z,1.50
2018-03-21T18:20:23.071Z,1.50
2018-03-21T18:22:49.490Z,1.50
2018-03-21T18:25:15.886Z,1.40
2018-03-21T18:27:42.235Z,1.40
2018-03-21T18:30:09.382Z,1.30
2018-03-21T18:32:36.461Z,1.30
2018-03-21T18:35:02.792Z,1.30
2018-03-21T18:37:29.131Z,1.20
2018-03-21T18:39:55.494Z,1.20
2018-03-21T18:42:21.969Z,1.20
2018-03-21T18:44:48.502Z,1.20
2018-03-21T18:55:53.028Z,1.20
2018-03-21T18:58:19.651Z,1.20
2018-03-21T19:00:46.238Z,1.20
2018-03-21T19:03:14.189Z,1.10
2018-03-21T19:05:40.761Z,1.10
2018-03-21T19:08:07.372Z,1.10
2018-03-21T19:10:34.609Z,1.10
2018-03-21T19:15:34.169Z,1.00
2018-03-21T19:18:01.192Z,0.90
2018-03-21T19:20:28.501Z,0.90
2018-03-21T19:22:54.880Z,0.90
2018-03-21T19:25:21.293Z,0.90
2018-03-21T19:27:47.655Z,0.80
2018-03-21T19:30:13.953Z,0.80
2018-03-21T19:32:40.329Z,0.70
2018-03-21T19:35:07.471Z,0.70
2018-03-21T19:37:33.852Z,0.70
2018-03-21T19:40:00.230Z,0.70
2018-03-21T19:42:26.697Z,0.70
2018-03-21T19:44:53.038Z,0.60
2018-03-21T19:47:20.096Z,0.60
2018-03-21T19:49:46.442Z,0.60
2018-03-21T19:52:12.733Z,0.60
2018-03-21T19:54:39.827Z,0.60
2018-03-21T19:57:06.226Z,0.60
2018-03-21T19:59:32.564Z,0.60
2018-03-21T20:01:59.456Z,0.60
2018-03-21T20:04:26.644Z,0.80
2018-03-21T20:06:54.541Z,0.70
2018-03-21T20:09:22.619Z,0.70
2018-03-21T20:11:50.602Z,0.70
2018-03-21T20:14:16.996Z,0.60
2018-03-21T20:16:43.260Z,0.60
2018-03-21T20:19:09.573Z,0.50
2018-03-21T20:21:35.942Z,0.50
2018-03-21T20:24:02.277Z,0.50
2018-03-21T20:26:28.668Z,0.40
2018-03-21T20:28:54.988Z,0.40
2018-03-21T20:31:21.302Z,0.40
2018-03-21T20:33:47.588Z,0.40
2018-03-21T20:36:13.896Z,0.50
2018-03-21T20:38:40.220Z,0.50
2018-03-21T20:41:06.536Z,0.50
2018-03-21T20:43:32.832Z,0.60
2018-03-21T20:45:59.218Z,0.60
2018-03-21T20:48:25.597Z,0.60
2018-03-21T20:50:51.984Z,0.60
2018-03-21T20:53:18.284Z,0.60
2018-03-21T20:55:44.611Z,0.50
2018-03-21T20:58:10.956Z,0.50
2018-03-21T21:00:37.235Z,0.40
2018-03-21T21:03:03.579Z,0.40
2018-03-21T21:05:29.879Z,0.50
2018-03-21T21:07:56.215Z,0.50
2018-03-21T21:10:22.548Z,0.40
2018-03-21T21:12:49.033Z,0.50
2018-03-21T21:15:15.327Z,0.50
2018-03-21T21:17:41.828Z,0.50
2018-03-21T21:20:08.161Z,0.50
2018-03-21T21:22:34.498Z,0.50
2018-03-21T21:25:00.851Z,0.50
2018-03-21T21:27:27.155Z,0.50
2018-03-21T21:29:53.457Z,0.50
2018-03-21T21:32:20.522Z,0.50
2018-03-21T21:34:46.914Z,0.50
2018-03-21T21:37:13.305Z,0.50
2018-03-21T21:39:39.630Z,0.50
2018-03-21T21:42:05.955Z,0.50
2018-03-21T21:44:32.296Z,0.50
2018-03-21T21:46:58.616Z,0.50
2018-03-21T21:49:24.950Z,0.50
2018-03-21T21:51:51.251Z,0.50
2018-03-21T21:54:18.270Z,0.60
2018-03-21T21:56:44.551Z,0.50
2018-03-21T21:59:10.913Z,0.50
2018-03-21T22:01:37.288Z,0.50
2018-03-21T22:04:03.660Z,0.50
2018-03-21T22:06:30.001Z,0.60
2018-03-21T22:08:56.279Z,0.60
2018-03-21T22:11:23.359Z,0.60
2018-03-21T22:13:49.682Z,0.60
2018-03-21T22:16:15.951Z,0.60
2018-03-21T22:18:42.260Z,0.60
2018-03-21T22:21:08.562Z,0.60
2018-03-21T22:23:35.551Z,0.50
2018-03-21T22:26:01.860Z,0.60
2018-03-21T22:28:28.126Z,0.50
2018-03-21T22:30:54.406Z,0.60
2018-03-21T22:33:21.418Z,0.60
2018-03-21T22:35:47.762Z,0.60
2018-03-21T22:38:14.814Z,0.60
2018-03-21T22:40:41.104Z,0.60
2018-03-21T22:43:07.413Z,0.60
2018-03-21T22:45:33.708Z,0.60
2018-03-21T22:48:00.715Z,0.70
2018-03-21T22:50:27.003Z,0.60
2018-03-21T22:52:53.346Z,0.60
2018-03-21T22:55:19.685Z,0.70
2018-03-21T22:57:45.926Z,0.70
2018-03-21T23:00:12.247Z,0.70
2018-03-21T23:02:38.607Z,0.80
2018-03-21T23:05:04.931Z,0.80
2018-03-21T23:07:31.246Z,0.80
2018-03-21T23:09:57.628Z,0.80
2018-03-21T23:12:23.920Z,0.80
2018-03-21T23:14:50.256Z,0.80
2018-03-21T23:17:16.542Z,0.80
2018-03-21T23:19:43.608Z,0.70
2018-03-21T23:22:09.977Z,0.70
2018-03-21T23:24:36.254Z,0.70
2018-03-21T23:27:03.302Z,0.80
2018-03-21T23:29:29.565Z,0.80
2018-03-21T23:31:55.859Z,0.80
2018-03-21T23:34:22.932Z,0.80
2018-03-21T23:36:49.267Z,0.80
2018-03-21T23:39:15.535Z,0.80
2018-03-21T23:41:41.815Z,0.80
2018-03-21T23:44:08.061Z,0.80
2018-03-21T23:46:34.370Z,0.80
2018-03-21T23:49:00.671Z,0.80
2018-03-21T23:51:27.781Z,0.80
2018-03-21T23:53:54.085Z,0.80
2018-03-21T23:56:20.351Z,0.70
2018-03-21T23:58:46.651Z,0.70
